createdAt,value
2022-08-14T00:00:15.747Z,9.57
2022-08-14T00:03:02.076Z,10.07
2022-08-14T00:05:58.388Z,8.77
2022-08-14T00:08:46.862Z,10.47
2022-08-14T00:11:33.146Z,9.43
2022-08-14T00:14:19.296Z,9.20
2022-08-14T00:17:05.613Z,9.87
2022-08-14T00:19:51.922Z,9.70
2022-08-14T00:22:56.251Z,11.73
2022-08-14T00:25:53.706Z,9.00
2022-08-14T00:28:45.267Z,9.73
2022-08-14T00:31:44.407Z,10.30
2022-08-14T00:34:36.296Z,9.20
2022-08-14T00:37:32.524Z,9.70
2022-08-14T00:40:33.455Z,10.13
2022-08-14T00:43:22.853Z,10.73
2022-08-14T00:46:32.341Z,10.07
2022-08-14T00:49:17.853Z,9.30
2022-08-14T00:52:07.144Z,9.83
2022-08-14T00:54:57.668Z,10.60
2022-08-14T00:57:44.914Z,11.33
2022-08-14T01:00:34.200Z,11.47
2022-08-14T01:03:23.789Z,10.40
2022-08-14T01:06:11.685Z,10.20
2022-08-14T01:08:59.445Z,10.90
2022-08-14T01:12:02.544Z,10.63
2022-08-14T01:14:55.214Z,10.90
2022-08-14T01:18:02.882Z,13.10
2022-08-14T01:21:06.439Z,11.00
2022-08-14T01:23:54.247Z,10.80
2022-08-14T01:26:43.293Z,10.97
2022-08-14T01:29:59.201Z,10.40
2022-08-14T01:32:46.124Z,10.80
2022-08-14T01:36:03.310Z,11.07
2022-08-14T01:38:49.102Z,11.47
2022-08-14T01:41:38.524Z,10.07
2022-08-14T01:44:33.393Z,11.27
2022-08-14T01:47:22.243Z,11.10
2022-08-14T01:50:10.187Z,10.60
2022-08-14T01:52:59.022Z,10.83
2022-08-14T01:55:46.185Z,11.00
2022-08-14T01:58:33.152Z,11.33
2022-08-14T02:01:20.376Z,12.17
2022-08-14T02:04:40.837Z,11.47
2022-08-14T02:07:34.452Z,11.60
2022-08-14T02:10:29.180Z,10.00
2022-08-14T02:13:19.675Z,10.47
2022-08-14T02:16:13.457Z,10.53
2022-08-14T02:19:10.266Z,11.90
2022-08-14T02:22:03.096Z,11.20
2022-08-14T02:24:49.692Z,11.17
2022-08-14T02:28:22.114Z,10.70
2022-08-14T02:30:43.350Z,12.87
2022-08-14T02:33:33.680Z,10.17
2022-08-14T02:37:04.522Z,11.00
2022-08-14T02:39:33.449Z,11.20
2022-08-14T02:42:23.406Z,10.33
2022-08-14T02:45:24.021Z,11.17
2022-08-14T02:48:10.429Z,11.77
2022-08-14T02:51:16.005Z,11.33
2022-08-14T02:54:06.719Z,11.10
2022-08-14T02:57:16.417Z,10.47
2022-08-14T03:00:00.267Z,10.30
2022-08-14T03:02:56.152Z,11.63
2022-08-14T03:05:45.008Z,11.60
2022-08-14T03:08:34.003Z,11.97
2022-08-14T03:11:22.169Z,13.63
2022-08-14T03:14:11.969Z,11.93
2022-08-14T03:17:01.706Z,11.80
2022-08-14T03:19:47.386Z,11.73
2022-08-14T03:22:39.469Z,11.87
2022-08-14T03:25:33.236Z,12.30
2022-08-14T03:28:33.000Z,12.33
2022-08-14T03:31:26.038Z,12.50
2022-08-14T03:34:24.596Z,13.17
2022-08-14T03:37:37.591Z,13.00
2022-08-14T03:40:28.431Z,13.63
2022-08-14T03:43:15.123Z,12.33
2022-08-14T03:46:03.438Z,13.67
2022-08-14T03:48:55.998Z,13.83
2022-08-14T03:51:41.861Z,14.10
2022-08-14T03:54:28.151Z,12.50
2022-08-14T03:57:14.008Z,13.20
2022-08-14T04:00:03.660Z,12.43
2022-08-14T04:02:57.674Z,13.60
2022-08-14T04:05:49.073Z,13.57
2022-08-14T04:08:36.556Z,13.77
2022-08-14T04:11:22.173Z,13.87
2022-08-14T04:14:08.163Z,12.93
2022-08-14T04:16:54.696Z,13.27
2022-08-14T04:19:40.685Z,13.53
2022-08-14T04:22:27.125Z,13.20
2022-08-14T04:25:12.845Z,14.77
2022-08-14T04:28:03.600Z,13.00
2022-08-14T04:30:49.594Z,12.97
2022-08-14T04:33:36.669Z,14.07
2022-08-14T04:36:23.960Z,12.70
2022-08-14T04:39:28.504Z,12.27
2022-08-14T04:42:33.081Z,13.50
2022-08-14T04:45:23.631Z,12.70
2022-08-14T04:48:43.046Z,13.30
2022-08-14T04:51:28.139Z,13.30
2022-08-14T04:54:16.648Z,13.10
2022-08-14T04:57:03.432Z,12.90
2022-08-14T04:59:49.202Z,15.00
2022-08-14T05:02:36.965Z,13.37
2022-08-14T05:05:24.939Z,12.50
2022-08-14T05:08:12.228Z,13.03
2022-08-14T05:11:19.300Z,13.57
2022-08-14T05:14:32.991Z,13.80
2022-08-14T05:17:13.921Z,14.00
2022-08-14T05:21:56.198Z,16.53
2022-08-14T05:23:11.194Z,13.30
2022-08-14T05:26:06.026Z,14.17
2022-08-14T05:28:51.614Z,14.03
2022-08-14T05:31:40.667Z,13.20
2022-08-14T05:34:32.063Z,13.27
2022-08-14T05:37:19.489Z,14.07
2022-08-14T05:40:06.416Z,15.53
2022-08-14T05:42:52.864Z,14.77
2022-08-14T05:45:39.277Z,15.13
2022-08-14T05:48:33.701Z,14.27
2022-08-14T05:51:28.559Z,14.13
2022-08-14T05:54:27.206Z,13.53
2022-08-14T05:57:13.392Z,14.07
2022-08-14T05:59:59.528Z,14.20
2022-08-14T06:02:46.282Z,13.50
2022-08-14T06:05:32.302Z,15.70
2022-08-14T06:08:35.457Z,14.90
2022-08-14T06:11:30.919Z,14.37
2022-08-14T06:14:21.280Z,14.03
2022-08-14T06:17:09.913Z,15.23
2022-08-14T06:20:01.702Z,14.60
2022-08-14T06:22:50.441Z,14.23
2022-08-14T06:25:38.130Z,14.70
2022-08-14T06:28:28.147Z,14.67
2022-08-14T06:31:15.437Z,13.57
2022-08-14T06:35:02.635Z,13.03
2022-08-14T06:37:07.655Z,12.70
2022-08-14T06:39:55.424Z,15.10
2022-08-14T06:42:41.816Z,13.70
2022-08-14T06:45:31.140Z,13.73
2022-08-14T06:48:18.889Z,13.97
2022-08-14T06:51:10.211Z,14.63
2022-08-14T06:53:57.029Z,15.43
2022-08-14T06:56:44.424Z,14.70
2022-08-14T06:59:40.291Z,14.43
2022-08-14T07:02:45.407Z,14.57
2022-08-14T07:05:58.150Z,14.80
2022-08-14T07:08:44.846Z,13.47
2022-08-14T07:11:33.917Z,14.57
2022-08-14T07:14:20.654Z,13.63
2022-08-14T07:17:06.758Z,14.40
2022-08-14T07:19:53.318Z,13.60
2022-08-14T07:22:56.295Z,13.30
2022-08-14T07:25:44.342Z,13.80
2022-08-14T07:28:30.957Z,14.90
2022-08-14T07:31:16.890Z,15.87
2022-08-14T07:34:04.933Z,13.60
2022-08-14T07:36:57.992Z,14.53
2022-08-14T07:39:46.447Z,12.50
2022-08-14T07:42:36.665Z,13.63
2022-08-14T07:45:22.445Z,14.73
2022-08-14T07:48:09.189Z,14.90
2022-08-14T07:51:10.627Z,16.10
2022-08-14T07:53:57.532Z,15.43
2022-08-14T07:56:48.338Z,14.13
2022-08-14T07:59:41.923Z,13.10
2022-08-14T08:02:32.559Z,14.40
2022-08-14T08:05:19.025Z,14.43
2022-08-14T08:08:08.476Z,14.20
2022-08-14T08:11:15.153Z,13.93
2022-08-14T08:14:10.752Z,12.10
2022-08-14T08:17:03.989Z,13.57
2022-08-14T08:19:51.594Z,12.10
2022-08-14T08:22:37.816Z,12.70
2022-08-14T08:25:24.447Z,13.37
2022-08-14T08:28:21.796Z,13.60
2022-08-14T08:31:08.806Z,12.87
2022-08-14T08:33:57.866Z,14.70
2022-08-14T08:36:46.458Z,13.00
2022-08-14T08:40:01.254Z,12.73
2022-08-14T08:42:52.024Z,14.13
2022-08-14T08:45:40.796Z,13.57
2022-08-14T08:48:31.423Z,14.20
2022-08-14T08:51:42.880Z,14.13
2022-08-14T08:54:31.781Z,13.97
2022-08-14T08:57:21.344Z,14.83
2022-08-14T09:00:25.101Z,13.60
2022-08-14T09:03:13.168Z,15.27
2022-08-14T09:06:03.033Z,13.47
2022-08-14T09:08:48.536Z,14.00
2022-08-14T09:11:35.113Z,12.53
2022-08-14T09:17:49.691Z,13.93
2022-08-14T09:20:36.176Z,13.23
2022-08-14T09:23:34.537Z,13.83
2022-08-14T09:26:21.666Z,14.17
2022-08-14T09:29:08.082Z,12.00
2022-08-14T09:31:58.102Z,13.40
2022-08-14T09:34:59.256Z,13.33
2022-08-14T09:38:19.429Z,13.87
2022-08-14T09:42:21.953Z,14.00
2022-08-14T09:44:49.724Z,12.70
2022-08-14T09:47:46.474Z,13.07
2022-08-14T09:50:45.745Z,12.57
2022-08-14T09:54:19.429Z,14.20
2022-08-14T09:56:51.568Z,11.87
2022-08-14T09:59:50.442Z,13.33
2022-08-14T10:02:37.287Z,12.27
2022-08-14T10:05:39.227Z,12.30
2022-08-14T10:08:26.906Z,11.43
2022-08-14T10:11:19.362Z,10.30
2022-08-14T10:14:34.758Z,10.03
2022-08-14T10:17:26.764Z,10.60
2022-08-14T10:20:39.410Z,10.27
2022-08-14T10:23:23.142Z,9.67
2022-08-14T10:26:23.168Z,10.73
2022-08-14T10:29:20.287Z,9.60
2022-08-14T10:32:18.187Z,10.13
2022-08-14T10:35:16.307Z,11.30
2022-08-14T10:38:03.392Z,10.70
2022-08-14T10:40:59.344Z,10.50
2022-08-14T10:44:05.705Z,9.17
2022-08-14T10:47:39.725Z,9.20
2022-08-14T10:50:14.895Z,9.87
2022-08-14T10:53:05.674Z,11.13
2022-08-14T10:55:58.359Z,10.27
2022-08-14T10:58:44.154Z,9.80
2022-08-14T11:01:38.675Z,10.73
2022-08-14T11:04:30.351Z,10.93
2022-08-14T11:07:21.254Z,10.50
2022-08-14T11:10:14.043Z,9.77
2022-08-14T11:13:00.604Z,8.83
2022-08-14T11:15:50.560Z,9.90
2022-08-14T11:18:40.738Z,9.50
2022-08-14T11:21:34.125Z,9.07
2022-08-14T11:24:54.304Z,9.50
2022-08-14T11:27:35.409Z,8.60
2022-08-14T11:30:50.104Z,8.27
2022-08-14T11:33:32.610Z,7.88
2022-08-14T11:36:23.421Z,7.83
2022-08-14T11:39:09.822Z,8.27
2022-08-14T11:41:57.581Z,7.57
2022-08-14T11:44:45.672Z,7.13
2022-08-14T11:48:10.661Z,8.00
2022-08-14T11:50:44.380Z,7.57
2022-08-14T11:53:31.543Z,7.77
2022-08-14T11:56:18.673Z,7.63
2022-08-14T11:59:19.495Z,6.90
2022-08-14T12:03:00.992Z,7.07
2022-08-14T12:05:30.206Z,6.20
2022-08-14T12:08:16.312Z,6.73
2022-08-14T12:11:15.335Z,7.60
2022-08-14T12:14:08.442Z,6.17
2022-08-14T12:17:00.090Z,6.67
2022-08-14T12:19:50.890Z,7.07
2022-08-14T12:22:39.988Z,7.07
2022-08-14T12:25:26.069Z,6.67
2022-08-14T12:28:27.235Z,7.17
2022-08-14T12:31:23.712Z,6.70
2022-08-14T12:34:13.443Z,7.03
2022-08-14T12:37:05.613Z,6.93
2022-08-14T12:39:51.998Z,6.43
2022-08-14T12:42:40.684Z,6.70
2022-08-14T12:45:35.470Z,6.90
2022-08-14T12:48:31.688Z,6.47
2022-08-14T12:51:21.710Z,6.60
2022-08-14T12:54:19.345Z,7.73
2022-08-14T12:57:19.275Z,8.30
2022-08-14T13:00:22.700Z,8.27
2022-08-14T13:03:09.567Z,7.90
2022-08-14T13:05:56.655Z,7.23
2022-08-14T13:08:53.124Z,7.40
2022-08-14T13:11:44.853Z,6.93
2022-08-14T13:14:33.511Z,7.33
2022-08-14T13:17:20.779Z,7.33
2022-08-14T13:20:10.429Z,7.30
2022-08-14T13:22:56.725Z,6.87
2022-08-14T13:25:55.990Z,6.60
2022-08-14T13:29:02.270Z,7.33
2022-08-14T13:31:51.613Z,6.70
2022-08-14T13:34:42.028Z,6.53
2022-08-14T13:37:27.763Z,9.00
2022-08-14T13:40:14.487Z,7.20
2022-08-14T13:43:01.928Z,8.70
2022-08-14T13:46:00.516Z,7.40
2022-08-14T13:48:47.467Z,6.70
2022-08-14T13:51:34.234Z,7.40
2022-08-14T13:57:22.827Z,7.70
2022-08-14T14:00:18.016Z,10.63
2022-08-14T14:06:19.292Z,8.23
2022-08-14T14:09:06.935Z,7.83
2022-08-14T14:11:55.786Z,8.30
2022-08-14T14:14:50.782Z,8.63
2022-08-14T14:17:38.895Z,7.87
2022-08-14T14:20:35.973Z,8.00
2022-08-14T14:23:23.641Z,8.10
2022-08-14T14:29:07.688Z,9.03
2022-08-14T14:31:54.597Z,8.50
2022-08-14T14:38:03.513Z,8.67
2022-08-14T14:40:53.751Z,9.00
2022-08-14T14:43:51.613Z,8.00
2022-08-14T14:46:41.438Z,7.93
2022-08-14T14:52:28.576Z,8.70
2022-08-14T14:55:16.880Z,7.43
2022-08-14T14:58:07.209Z,8.37
2022-08-14T15:00:55.655Z,8.53
2022-08-14T15:03:47.870Z,8.47
2022-08-14T15:06:38.313Z,9.13
2022-08-14T15:09:34.676Z,9.47
2022-08-14T15:12:55.508Z,9.63
2022-08-14T15:15:27.645Z,9.37
2022-08-14T15:18:36.294Z,9.10
2022-08-14T15:21:19.799Z,9.10
2022-08-14T15:24:05.773Z,8.47
2022-08-14T15:26:58.828Z,7.90
2022-08-14T15:29:46.466Z,8.93
2022-08-14T15:32:32.708Z,9.43
2022-08-14T15:35:18.627Z,9.47
2022-08-14T15:38:08.923Z,8.63
2022-08-14T15:40:56.201Z,9.47
2022-08-14T15:43:42.628Z,8.87
2022-08-14T15:46:41.485Z,10.00
2022-08-14T15:49:34.917Z,8.17
2022-08-14T15:52:32.802Z,10.73
2022-08-14T15:55:23.156Z,8.63
2022-08-14T15:58:14.356Z,8.00
2022-08-14T16:01:50.693Z,8.80
2022-08-14T16:04:26.140Z,8.17
2022-08-14T16:07:13.823Z,7.80
2022-08-14T16:10:27.925Z,8.23
2022-08-14T16:13:08.992Z,8.07
2022-08-14T16:16:34.345Z,8.33
2022-08-14T16:19:10.724Z,8.70
2022-08-14T16:22:03.525Z,8.27
2022-08-14T16:25:08.281Z,9.67
2022-08-14T16:27:56.107Z,12.30
2022-08-14T16:30:44.949Z,8.57
2022-08-14T16:33:58.734Z,7.97
2022-08-14T16:36:41.411Z,7.93
2022-08-14T16:39:38.191Z,10.40
2022-08-14T16:42:39.358Z,8.00
2022-08-14T16:45:33.726Z,9.43
2022-08-14T16:48:55.206Z,7.90
2022-08-14T16:51:39.305Z,9.93
2022-08-14T16:54:35.336Z,8.07
2022-08-14T16:57:32.495Z,7.90
2022-08-14T17:00:29.367Z,10.37
2022-08-14T17:03:18.855Z,9.33
2022-08-14T17:06:30.818Z,9.33
2022-08-14T17:09:32.316Z,8.50
2022-08-14T17:12:28.976Z,8.87
2022-08-14T17:15:21.095Z,8.03
2022-08-14T17:18:07.513Z,8.37
2022-08-14T17:21:18.835Z,7.40
2022-08-14T17:24:55.817Z,8.00
2022-08-14T17:27:22.677Z,8.50
2022-08-14T17:30:32.787Z,7.80
2022-08-14T17:33:23.321Z,7.77
2022-08-14T17:36:10.100Z,8.53
2022-08-14T17:39:07.129Z,8.20
2022-08-14T17:42:03.032Z,8.20
2022-08-14T17:44:49.190Z,8.20
2022-08-14T17:47:38.002Z,8.60
2022-08-14T17:50:59.726Z,9.57
2022-08-14T17:53:53.302Z,8.87
2022-08-14T17:56:39.667Z,7.83
2022-08-14T17:59:25.484Z,7.50
2022-08-14T18:02:16.452Z,8.20
2022-08-14T18:05:04.241Z,7.73
2022-08-14T18:08:32.038Z,9.50
2022-08-14T18:11:02.355Z,7.90
2022-08-14T18:13:52.707Z,8.20
2022-08-14T18:16:44.710Z,7.50
2022-08-14T18:19:34.750Z,7.83
2022-08-14T18:22:32.346Z,8.47
2022-08-14T18:25:25.281Z,9.33
2022-08-14T18:28:43.625Z,7.67
2022-08-14T18:31:23.122Z,11.10
2022-08-14T18:34:12.248Z,14.10
2022-08-14T18:37:21.022Z,13.17
2022-08-14T18:40:19.062Z,19.37
2022-08-14T18:43:06.751Z,10.57
2022-08-14T18:46:00.914Z,12.23
2022-08-14T18:48:51.644Z,14.47
2022-08-14T18:51:45.189Z,19.57
2022-08-14T18:54:36.873Z,20.17
2022-08-14T18:57:23.178Z,13.83
2022-08-14T19:00:33.423Z,17.83
2022-08-14T19:03:22.642Z,11.90
2022-08-14T19:06:09.512Z,10.63
2022-08-14T19:08:55.648Z,12.77
2022-08-14T19:11:42.121Z,11.73
2022-08-14T19:14:44.893Z,10.83
2022-08-14T19:17:42.226Z,11.80
2022-08-14T19:24:04.633Z,12.93
2022-08-14T19:27:23.803Z,10.80
2022-08-14T19:30:19.728Z,17.60
2022-08-14T19:33:30.017Z,15.50
2022-08-14T19:36:28.683Z,13.07
2022-08-14T19:39:17.631Z,12.93
2022-08-14T19:42:10.262Z,13.50
2022-08-14T19:44:58.477Z,12.40
2022-08-14T19:47:45.138Z,12.47
2022-08-14T19:50:40.664Z,13.07
2022-08-14T19:53:27.333Z,11.10
2022-08-14T19:56:13.796Z,12.93
2022-08-14T19:59:19.245Z,13.57
2022-08-14T20:02:07.266Z,12.70
2022-08-14T20:05:04.100Z,10.97
2022-08-14T20:07:59.289Z,11.13
2022-08-14T20:11:11.044Z,13.07
2022-08-14T20:14:12.128Z,11.27
2022-08-14T20:17:08.556Z,11.17
2022-08-14T20:19:54.709Z,12.47
2022-08-14T20:22:40.581Z,11.97
2022-08-14T20:25:26.135Z,12.90
2022-08-14T20:28:30.727Z,10.50
2022-08-14T20:31:18.576Z,11.33
2022-08-14T20:34:19.228Z,10.77
2022-08-14T20:37:22.486Z,12.23
2022-08-14T20:40:23.818Z,11.93
2022-08-14T20:43:36.843Z,11.67
2022-08-14T20:46:30.093Z,15.00
2022-08-14T20:49:16.907Z,15.03
2022-08-14T20:52:19.115Z,12.47
2022-08-14T20:55:22.625Z,14.63
2022-08-14T20:58:09.875Z,11.50
2022-08-14T21:01:01.775Z,13.40
2022-08-14T21:03:57.461Z,11.63
2022-08-14T21:07:22.969Z,11.67
2022-08-14T21:10:06.601Z,13.17
2022-08-14T21:13:26.275Z,10.63
2022-08-14T21:16:04.305Z,9.87
2022-08-14T21:19:10.079Z,10.97
2022-08-14T21:22:02.525Z,10.30
2022-08-14T21:24:50.255Z,10.67
2022-08-14T21:27:57.031Z,10.03
2022-08-14T21:30:51.316Z,10.77
2022-08-14T21:33:42.854Z,10.03
2022-08-14T21:36:31.029Z,9.80
2022-08-14T21:39:22.171Z,9.70
2022-08-14T21:42:11.047Z,9.70
2022-08-14T21:44:56.848Z,9.03
2022-08-14T21:47:43.461Z,8.80
2022-08-14T21:50:39.422Z,11.23
2022-08-14T21:53:36.611Z,9.10
2022-08-14T21:56:57.492Z,8.87
2022-08-14T21:59:44.709Z,9.73
2022-08-14T22:02:32.935Z,10.23
2022-08-14T22:05:20.489Z,9.57
2022-08-14T22:08:11.930Z,10.40
2022-08-14T22:10:59.189Z,9.47
2022-08-14T22:13:47.023Z,9.70
2022-08-14T22:17:00.253Z,10.97
2022-08-14T22:19:47.168Z,10.60
2022-08-14T22:22:41.500Z,10.13
2022-08-14T22:25:33.236Z,10.30
2022-08-14T22:28:22.814Z,10.97
2022-08-14T22:31:22.033Z,10.77
2022-08-14T22:34:10.954Z,10.77
2022-08-14T22:37:02.782Z,10.40
2022-08-14T22:40:46.674Z,10.20
2022-08-14T22:43:00.621Z,10.90
2022-08-14T22:45:55.388Z,9.83
2022-08-14T22:48:42.090Z,10.67
2022-08-14T22:51:28.625Z,10.63
2022-08-14T22:54:52.103Z,10.57
2022-08-14T22:57:21.311Z,10.80
2022-08-14T23:00:15.036Z,11.20
2022-08-14T23:03:03.194Z,11.60
2022-08-14T23:05:52.684Z,9.57
2022-08-14T23:08:59.556Z,11.27
2022-08-14T23:11:48.763Z,11.93
2022-08-14T23:14:35.132Z,11.00
2022-08-14T23:17:21.084Z,12.53
2022-08-14T23:20:18.999Z,11.57
2022-08-14T23:23:12.179Z,11.70
2022-08-14T23:26:00.374Z,11.00
2022-08-14T23:28:57.268Z,11.67
2022-08-14T23:31:44.362Z,12.43
2022-08-14T23:34:31.025Z,10.93
2022-08-14T23:37:19.317Z,12.50
2022-08-14T23:40:29.609Z,10.47
2022-08-14T23:43:16.506Z,11.50
2022-08-14T23:46:02.374Z,10.83
2022-08-14T23:49:00.174Z,10.33
2022-08-14T23:52:49.394Z,12.00
2022-08-14T23:54:56.925Z,10.90
2022-08-14T23:57:57.636Z,10.60
